sensor_id;sensor_type;location;lat;lon;timestamp;pressure;altitude;pressure_sealevel;temperature
85893;BMP280;76433;42.122;23.040;2024-03-02T00:07:19;96800.84;;;9.48
85893;BMP280;76433;42.122;23.040;2024-03-02T00:13:02;96793.72;;;9.45
85893;BMP280;76433;42.122;23.040;2024-03-02T00:17:58;96787.78;;;9.41
85893;BMP280;76433;42.122;23.040;2024-03-02T00:33:32;96798.13;;;9.33
85893;BMP280;76433;42.122;23.040;2024-03-02T00:35:57;96806.69;;;9.37
85893;BMP280;76433;42.122;23.040;2024-03-02T00:41:46;96801.34;;;9.37
85893;BMP280;76433;42.122;23.040;2024-03-02T00:47:38;96810.38;;;9.40
85893;BMP280;76433;42.122;23.040;2024-03-02T00:50:04;96806.69;;;9.37
85893;BMP280;76433;42.122;23.040;2024-03-02T00:52:30;96807.16;;;9.36
85893;BMP280;76433;42.122;23.040;2024-03-02T00:58:19;96807.69;;;9.40
85893;BMP280;76433;42.122;23.040;2024-03-02T01:00:45;96786.22;;;9.34
85893;BMP280;76433;42.122;23.040;2024-03-02T01:06:31;96786.78;;;9.38
85893;BMP280;76433;42.122;23.040;2024-03-02T01:08:57;96781.34;;;9.33
85893;BMP280;76433;42.122;23.040;2024-03-02T01:11:22;96774.88;;;9.25
85893;BMP280;76433;42.122;23.040;2024-03-02T01:17:09;96777.34;;;9.13
85893;BMP280;76433;42.122;23.040;2024-03-02T01:22:56;96770.34;;;9.16
85893;BMP280;76433;42.122;23.040;2024-03-02T01:25:21;96767.97;;;9.18
85893;BMP280;76433;42.122;23.040;2024-03-02T01:27:47;96763.25;;;9.13
85893;BMP280;76433;42.122;23.040;2024-03-02T01:30:12;96761.97;;;9.08
85893;BMP280;76433;42.122;23.040;2024-03-02T01:32:38;96753.72;;;8.97
85893;BMP280;76433;42.122;23.040;2024-03-02T01:35:04;96761.44;;;8.95
85893;BMP280;76433;42.122;23.040;2024-03-02T01:37:30;96749.88;;;8.98
85893;BMP280;76433;42.122;23.040;2024-03-02T01:39:55;96757.53;;;9.05
85893;BMP280;76433;42.122;23.040;2024-03-02T01:42:20;96744.16;;;9.05
85893;BMP280;76433;42.122;23.040;2024-03-02T01:44:46;96748.88;;;9.10
85893;BMP280;76433;42.122;23.040;2024-03-02T01:47:11;96747.13;;;9.07
85893;BMP280;76433;42.122;23.040;2024-03-02T01:49:37;96749.13;;;9.12
85893;BMP280;76433;42.122;23.040;2024-03-02T01:52:04;96748.22;;;9.16
85893;BMP280;76433;42.122;23.040;2024-03-02T01:54:29;96743.34;;;9.14
85893;BMP280;76433;42.122;23.040;2024-03-02T01:56:55;96745.66;;;9.06
85893;BMP280;76433;42.122;23.040;2024-03-02T01:59:20;96748.03;;;9.04
85893;BMP280;76433;42.122;23.040;2024-03-02T02:01:46;96753.00;;;9.11
85893;BMP280;76433;42.122;23.040;2024-03-02T02:04:11;96762.06;;;9.14
85893;BMP280;76433;42.122;23.040;2024-03-02T02:06:36;96751.06;;;9.12
85893;BMP280;76433;42.122;23.040;2024-03-02T02:09:02;96746.22;;;9.10
85893;BMP280;76433;42.122;23.040;2024-03-02T02:11:27;96738.81;;;9.05
85893;BMP280;76433;42.122;23.040;2024-03-02T02:13:53;96735.88;;;9.03
85893;BMP280;76433;42.122;23.040;2024-03-02T02:16:20;96735.88;;;9.03
85893;BMP280;76433;42.122;23.040;2024-03-02T02:18:46;96741.78;;;9.07
85893;BMP280;76433;42.122;23.040;2024-03-02T02:21:12;96740.28;;;9.06
85893;BMP280;76433;42.122;23.040;2024-03-02T02:23:37;96748.03;;;9.04
85893;BMP280;76433;42.122;23.040;2024-03-02T02:26:03;96751.00;;;9.06
85893;BMP280;76433;42.122;23.040;2024-03-02T02:32:03;96753.38;;;9.04
85893;BMP280;76433;42.122;23.040;2024-03-02T02:37:50;96774.75;;;9.04
85893;BMP280;76433;42.122;23.040;2024-03-02T02:40:16;96753.56;;;9.01
85893;BMP280;76433;42.122;23.040;2024-03-02T02:46:05;96758.19;;;9.00
85893;BMP280;76433;42.122;23.040;2024-03-02T02:54:55;96753.38;;;9.04
85893;BMP280;76433;42.122;23.040;2024-03-02T02:57:21;96753.09;;;9.02
85893;BMP280;76433;42.122;23.040;2024-03-02T02:59:46;96757.53;;;9.05
85893;BMP280;76433;42.122;23.040;2024-03-02T03:02:11;96762.50;;;9.12
85893;BMP280;76433;42.122;23.040;2024-03-02T03:07:58;96758.19;;;9.15
85893;BMP280;76433;42.122;23.040;2024-03-02T03:10:23;96750.63;;;9.13
85893;BMP280;76433;42.122;23.040;2024-03-02T03:16:12;96757.56;;;9.20
85893;BMP280;76433;42.122;23.040;2024-03-02T03:18:38;96751.19;;;9.18
85893;BMP280;76433;42.122;23.040;2024-03-02T03:21:03;96748.50;;;9.18
85893;BMP280;76433;42.122;23.040;2024-03-02T03:27:27;96743.44;;;9.20
85893;BMP280;76433;42.122;23.040;2024-03-02T03:29:55;96752.84;;;9.15
85893;BMP280;76433;42.122;23.040;2024-03-02T03:32:20;96750.06;;;9.09
85893;BMP280;76433;42.122;23.040;2024-03-02T03:34:45;96754.47;;;9.12
85893;BMP280;76433;42.122;23.040;2024-03-02T03:37:11;96761.69;;;9.06
85893;BMP280;76433;42.122;23.040;2024-03-02T03:39:37;96758.94;;;9.01
85893;BMP280;76433;42.122;23.040;2024-03-02T03:42:02;96765.59;;;8.96
85893;BMP280;76433;42.122;23.040;2024-03-02T03:44:28;96764.50;;;8.88
85893;BMP280;76433;42.122;23.040;2024-03-02T03:46:53;96755.28;;;8.89
85893;BMP280;76433;42.122;23.040;2024-03-02T03:49:19;96753.81;;;8.88
85893;BMP280;76433;42.122;23.040;2024-03-02T03:51:44;96754.09;;;8.90
85893;BMP280;76433;42.122;23.040;2024-03-02T03:54:09;96757.66;;;8.87
85893;BMP280;76433;42.122;23.040;2024-03-02T03:56:36;96752.97;;;8.82
85893;BMP280;76433;42.122;23.040;2024-03-02T03:59:02;96759.88;;;8.89
85893;BMP280;76433;42.122;23.040;2024-03-02T04:01:27;96743.19;;;8.79
85893;BMP280;76433;42.122;23.040;2024-03-02T04:03:52;96755.91;;;8.84
85893;BMP280;76433;42.122;23.040;2024-03-02T04:09:40;96769.53;;;8.86
85893;BMP280;76433;42.122;23.040;2024-03-02T04:15:27;96763.84;;;8.93
85893;BMP280;76433;42.122;23.040;2024-03-02T04:21:14;96752.25;;;8.96
85893;BMP280;76433;42.122;23.040;2024-03-02T04:23:39;96758.19;;;9.00
85893;BMP280;76433;42.122;23.040;2024-03-02T04:26:04;96752.97;;;8.97
85893;BMP280;76433;42.122;23.040;2024-03-02T04:28:30;96753.72;;;8.97
85893;BMP280;76433;42.122;23.040;2024-03-02T04:30:59;96759.19;;;9.03
85893;BMP280;76433;42.122;23.040;2024-03-02T04:33:36;96757.25;;;9.03
85893;BMP280;76433;42.122;23.040;2024-03-02T04:36:01;96757.25;;;9.03
85893;BMP280;76433;42.122;23.040;2024-03-02T04:38:26;96758.72;;;9.04
85893;BMP280;76433;42.122;23.040;2024-03-02T04:40:52;96765.53;;;9.05
85893;BMP280;76433;42.122;23.040;2024-03-02T04:43:17;96769.69;;;9.06
85893;BMP280;76433;42.122;23.040;2024-03-02T04:45:44;96773.56;;;9.05
85893;BMP280;76433;42.122;23.040;2024-03-02T04:48:09;96771.91;;;9.08
85893;BMP280;76433;42.122;23.040;2024-03-02T04:50:34;96766.28;;;9.06
85893;BMP280;76433;42.122;23.040;2024-03-02T04:53:00;96763.16;;;9.07
85893;BMP280;76433;42.122;23.040;2024-03-02T04:55:25;96773.13;;;9.07
85893;BMP280;76433;42.122;23.040;2024-03-02T04:57:53;96775.13;;;9.12
85893;BMP280;76433;42.122;23.040;2024-03-02T05:00:20;96773.84;;;9.07
85893;BMP280;76433;42.122;23.040;2024-03-02T05:09:17;96771.25;;;9.13
85893;BMP280;76433;42.122;23.040;2024-03-02T05:11:47;96772.94;;;9.10
85893;BMP280;76433;42.122;23.040;2024-03-02T05:14:35;96775.13;;;9.12
85893;BMP280;76433;42.122;23.040;2024-03-02T05:17:00;96782.78;;;9.04
85893;BMP280;76433;42.122;23.040;2024-03-02T05:19:26;96781.63;;;8.96
85893;BMP280;76433;42.122;23.040;2024-03-02T05:21:51;96787.88;;;8.93
85893;BMP280;76433;42.122;23.040;2024-03-02T05:24:16;96791.31;;;8.94
85893;BMP280;76433;42.122;23.040;2024-03-02T05:26:42;96782.28;;;8.91
85893;BMP280;76433;42.122;23.040;2024-03-02T05:29:07;96794.91;;;8.91
85893;BMP280;76433;42.122;23.040;2024-03-02T19:09:13;96968.19;;;8.83
85893;BMP280;76433;42.122;23.040;2024-03-02T19:11:38;96973.06;;;8.85
85893;BMP280;76433;42.122;23.040;2024-03-02T19:14:04;96966.72;;;8.82
85893;BMP280;76433;42.122;23.040;2024-03-02T19:16:30;96987.34;;;8.82
85893;BMP280;76433;42.122;23.040;2024-03-02T19:18:55;96975.78;;;8.75
85893;BMP280;76433;42.122;23.040;2024-03-02T19:21:20;96986.19;;;8.73
85893;BMP280;76433;42.122;23.040;2024-03-02T19:23:46;96995.53;;;8.78
85893;BMP280;76433;42.122;23.040;2024-03-02T19:26:11;97005.03;;;8.79
85893;BMP280;76433;42.122;23.040;2024-03-02T19:28:43;96995.53;;;8.78
85893;BMP280;76433;42.122;23.040;2024-03-02T19:31:08;96995.97;;;8.76
85893;BMP280;76433;42.122;23.040;2024-03-02T19:33:33;96994.09;;;8.68
85893;BMP280;76433;42.122;23.040;2024-03-02T19:35:59;97005.06;;;8.70
85893;BMP280;76433;42.122;23.040;2024-03-02T19:38:24;96991.13;;;8.66
85893;BMP280;76433;42.122;23.040;2024-03-02T19:40:51;96997.19;;;8.66
85893;BMP280;76433;42.122;23.040;2024-03-02T19:43:16;97000.03;;;8.63
85893;BMP280;76433;42.122;23.040;2024-03-02T19:45:43;97012.34;;;8.69
85893;BMP280;76433;42.122;23.040;2024-03-02T19:48:09;97004.19;;;8.64
85893;BMP280;76433;42.122;23.040;2024-03-02T19:50:35;97015.47;;;8.68
85893;BMP280;76433;42.122;23.040;2024-03-02T19:53:02;97015.31;;;8.71
85893;BMP280;76433;42.122;23.040;2024-03-02T19:55:28;97019.00;;;8.74
85893;BMP280;76433;42.122;23.040;2024-03-02T19:57:56;97028.19;;;8.73
85893;BMP280;76433;42.122;23.040;2024-03-02T20:00:21;97016.94;;;8.69
85893;BMP280;76433;42.122;23.040;2024-03-02T20:02:46;97037.09;;;8.79
85893;BMP280;76433;42.122;23.040;2024-03-02T20:05:12;97023.75;;;8.70
85893;BMP280;76433;42.122;23.040;2024-03-02T20:07:37;97017.41;;;8.58
85893;BMP280;76433;42.122;23.040;2024-03-02T20:10:10;97035.66;;;8.60
85893;BMP280;76433;42.122;23.040;2024-03-02T20:12:38;97047.38;;;8.53
85893;BMP280;76433;42.122;23.040;2024-03-02T20:15:04;97039.25;;;8.38
85893;BMP280;76433;42.122;23.040;2024-03-02T20:17:30;97051.56;;;8.36
85893;BMP280;76433;42.122;23.040;2024-03-02T20:19:56;97052.31;;;8.27
85893;BMP280;76433;42.122;23.040;2024-03-02T20:22:22;97040.16;;;8.17
85893;BMP280;76433;42.122;23.040;2024-03-02T20:24:47;97056.16;;;8.17
85893;BMP280;76433;42.122;23.040;2024-03-02T20:27:13;97056.75;;;8.12
85893;BMP280;76433;42.122;23.040;2024-03-02T20:29:39;97057.16;;;8.01
85893;BMP280;76433;42.122;23.040;2024-03-02T20:32:04;97059.09;;;7.92
85893;BMP280;76433;42.122;23.040;2024-03-02T20:34:30;97065.91;;;7.84
85893;BMP280;76433;42.122;23.040;2024-03-02T20:36:55;97060.28;;;7.73
85893;BMP280;76433;42.122;23.040;2024-03-02T20:39:26;97060.56;;;7.65
85893;BMP280;76433;42.122;23.040;2024-03-02T20:41:51;97060.84;;;7.58
85893;BMP280;76433;42.122;23.040;2024-03-02T20:44:17;97066.13;;;7.49
85893;BMP280;76433;42.122;23.040;2024-03-02T20:46:44;97070.56;;;7.43
85893;BMP280;76433;42.122;23.040;2024-03-02T20:49:10;97060.75;;;7.31
85893;BMP280;76433;42.122;23.040;2024-03-02T20:51:36;97068.44;;;7.29
85893;BMP280;76433;42.122;23.040;2024-03-02T20:54:01;97058.03;;;7.22
85893;BMP280;76433;42.122;23.040;2024-03-02T20:56:29;97071.09;;;7.29
85893;BMP280;76433;42.122;23.040;2024-03-02T20:58:54;97058.03;;;7.22
85893;BMP280;76433;42.122;23.040;2024-03-02T21:01:19;97070.78;;;7.27
85893;BMP280;76433;42.122;23.040;2024-03-02T21:03:46;97064.53;;;7.21
85893;BMP280;76433;42.122;23.040;2024-03-02T21:06:12;97072.84;;;7.23
85893;BMP280;76433;42.122;23.040;2024-03-02T21:08:37;97072.25;;;7.19
85893;BMP280;76433;42.122;23.040;2024-03-02T21:11:03;97059.06;;;7.15
85893;BMP280;76433;42.122;23.040;2024-03-02T21:13:31;97065.63;;;7.02
85893;BMP280;76433;42.122;23.040;2024-03-02T21:15:57;97065.63;;;7.02
85893;BMP280;76433;42.122;23.040;2024-03-02T21:18:23;97062.19;;;6.92
85893;BMP280;76433;42.122;23.040;2024-03-02T21:20:48;97061.88;;;6.90
85893;BMP280;76433;42.122;23.040;2024-03-02T21:23:14;97065.56;;;6.83
85893;BMP280;76433;42.122;23.040;2024-03-02T21:25:42;97065.78;;;6.76
85893;BMP280;76433;42.122;23.040;2024-03-02T21:28:08;97055.97;;;6.64
85893;BMP280;76433;42.122;23.040;2024-03-02T21:30:34;97063.72;;;6.58
85893;BMP280;76433;42.122;23.040;2024-03-02T21:33:03;97073.94;;;6.60
85893;BMP280;76433;42.122;23.040;2024-03-02T21:35:30;97065.03;;;6.54
85893;BMP280;76433;42.122;23.040;2024-03-02T21:38:00;97067.72;;;6.54
85893;BMP280;76433;42.122;23.040;2024-03-02T21:40:28;97070.06;;;6.52
85893;BMP280;76433;42.122;23.040;2024-03-02T21:42:54;97067.66;;;6.45
85893;BMP280;76433;42.122;23.040;2024-03-02T21:45:21;97084.53;;;6.51
85893;BMP280;76433;42.122;23.040;2024-03-02T21:47:46;97072.84;;;6.48
85893;BMP280;76433;42.122;23.040;2024-03-02T21:50:12;97076.81;;;6.44
85893;BMP280;76433;42.122;23.040;2024-03-02T21:52:37;97089.38;;;6.43
85893;BMP280;76433;42.122;23.040;2024-03-02T21:55:03;97089.25;;;6.47
85893;BMP280;76433;42.122;23.040;2024-03-02T21:57:28;97100.81;;;6.53
85893;BMP280;76433;42.122;23.040;2024-03-02T21:59:54;97099.09;;;6.59
85893;BMP280;76433;42.122;23.040;2024-03-02T22:02:19;97111.56;;;6.62
85893;BMP280;76433;42.122;23.040;2024-03-02T22:04:44;97099.41;;;6.61
85893;BMP280;76433;42.122;23.040;2024-03-02T22:07:10;97101.31;;;6.60
85893;BMP280;76433;42.122;23.040;2024-03-02T22:09:35;97107.53;;;6.57
85893;BMP280;76433;42.122;23.040;2024-03-02T22:12:00;97115.94;;;6.56
85893;BMP280;76433;42.122;23.040;2024-03-02T22:14:26;97112.34;;;6.50
85893;BMP280;76433;42.122;23.040;2024-03-02T22:16:51;97128.19;;;6.53
85893;BMP280;76433;42.122;23.040;2024-03-02T22:19:17;97131.28;;;6.52
85893;BMP280;76433;42.122;23.040;2024-03-02T22:21:42;97127.44;;;6.53
85893;BMP280;76433;42.122;23.040;2024-03-02T22:24:07;97117.34;;;6.48
85893;BMP280;76433;42.122;23.040;2024-03-02T22:26:33;97136.34;;;6.59
85893;BMP280;76433;42.122;23.040;2024-03-02T22:28:58;97131.69;;;6.63
85893;BMP280;76433;42.122;23.040;2024-03-02T22:31:23;97120.28;;;6.62
85893;BMP280;76433;42.122;23.040;2024-03-02T22:33:49;97137.97;;;6.69
85893;BMP280;76433;42.122;23.040;2024-03-02T22:36:14;97139.69;;;6.63
85893;BMP280;76433;42.122;23.040;2024-03-02T22:38:39;97142.34;;;6.63
85893;BMP280;76433;42.122;23.040;2024-03-02T22:41:05;97134.56;;;6.69
85893;BMP280;76433;42.122;23.040;2024-03-02T22:43:30;97145.69;;;6.76
85893;BMP280;76433;42.122;23.040;2024-03-02T22:45:56;97144.25;;;6.84
85893;BMP280;76433;42.122;23.040;2024-03-02T22:48:21;97130.06;;;6.87
85893;BMP280;76433;42.122;23.040;2024-03-02T22:50:47;97141.97;;;6.95
85893;BMP280;76433;42.122;23.040;2024-03-02T22:53:12;97124.50;;;6.94
85893;BMP280;76433;42.122;23.040;2024-03-02T22:55:37;97135.34;;;7.00
85893;BMP280;76433;42.122;23.040;2024-03-02T22:58:04;97133.59;;;7.06
85893;BMP280;76433;42.122;23.040;2024-03-02T23:00:29;97131.56;;;7.10
85893;BMP280;76433;42.122;23.040;2024-03-02T23:03:02;97120.28;;;7.06
85893;BMP280;76433;42.122;23.040;2024-03-02T23:05:29;97128.47;;;7.12
85893;BMP280;76433;42.122;23.040;2024-03-02T23:07:55;97120.47;;;7.12
85893;BMP280;76433;42.122;23.040;2024-03-02T23:10:21;97126.97;;;7.11
85893;BMP280;76433;42.122;23.040;2024-03-02T23:12:47;97119.41;;;7.09
85893;BMP280;76433;42.122;23.040;2024-03-02T23:15:12;97117.69;;;6.93
85893;BMP280;76433;42.122;23.040;2024-03-02T23:17:38;97129.72;;;6.76
85893;BMP280;76433;42.122;23.040;2024-03-02T23:20:03;97134.00;;;6.61
85893;BMP280;76433;42.122;23.040;2024-03-02T23:22:29;97121.59;;;6.45
85893;BMP280;76433;42.122;23.040;2024-03-02T23:24:54;97119.25;;;6.47
85893;BMP280;76433;42.122;23.040;2024-03-02T23:27:19;97113.44;;;6.40
85893;BMP280;76433;42.122;23.040;2024-03-02T23:29:45;97129.97;;;6.35
85893;BMP280;76433;42.122;23.040;2024-03-02T23:32:10;97115.53;;;6.23
85893;BMP280;76433;42.122;23.040;2024-03-02T23:34:36;97122.03;;;6.09
85893;BMP280;76433;42.122;23.040;2024-03-02T23:37:03;97134.50;;;6.00
85893;BMP280;76433;42.122;23.040;2024-03-02T23:39:28;97120.06;;;5.88
85893;BMP280;76433;42.122;23.040;2024-03-02T23:42:12;97125.59;;;5.81
85893;BMP280;76433;42.122;23.040;2024-03-02T23:44:38;97119.63;;;5.77
85893;BMP280;76433;42.122;23.040;2024-03-02T23:47:03;97115.28;;;5.70
85893;BMP280;76433;42.122;23.040;2024-03-02T23:49:29;97127.50;;;5.68
85893;BMP280;76433;42.122;23.040;2024-03-02T23:51:54;97123.00;;;5.65
85893;BMP280;76433;42.122;23.040;2024-03-02T23:54:19;97111.41;;;5.58
85893;BMP280;76433;42.122;23.040;2024-03-02T23:56:45;97122.78;;;5.59
85893;BMP280;76433;42.122;23.040;2024-03-02T23:59:11;97113.13;;;5.52
